createdAt,value
2022-10-26T04:05:04.973Z,6.87
2022-10-26T04:08:08.631Z,7.25
2022-10-26T04:11:11.365Z,6.87
2022-10-26T04:14:14.478Z,6.65
2022-10-26T04:17:17.082Z,6.55
2022-10-26T04:20:19.852Z,6.95
2022-10-26T04:23:22.480Z,7.22
2022-10-26T04:26:25.320Z,7.10
2022-10-26T04:29:27.825Z,7.32
2022-10-26T04:32:30.568Z,7.10
2022-10-26T04:35:33.320Z,7.35
2022-10-26T04:38:36.356Z,8.73
2022-10-26T04:41:38.865Z,9.07
2022-10-26T04:44:41.636Z,8.43
2022-10-26T04:47:44.173Z,9.32
2022-10-26T04:50:47.532Z,9.52
2022-10-26T04:53:50.118Z,9.80
2022-10-26T04:56:52.835Z,9.90
2022-10-26T05:00:00.520Z,9.70
2022-10-26T05:03:05.525Z,10.27
2022-10-26T05:06:08.053Z,9.90
2022-10-26T05:09:11.033Z,10.40
2022-10-26T05:12:13.491Z,10.27
2022-10-26T05:15:16.207Z,9.27
2022-10-26T05:18:18.814Z,9.55
2022-10-26T05:21:21.631Z,10.18
2022-10-26T05:24:24.185Z,10.07
2022-10-26T05:27:26.979Z,9.70
2022-10-26T05:30:30.410Z,10.52
2022-10-26T05:33:33.121Z,10.57
2022-10-26T05:36:35.544Z,9.95
2022-10-26T05:39:38.477Z,9.15
2022-10-26T05:42:40.955Z,9.38
2022-10-26T05:45:43.894Z,9.60
2022-10-26T05:48:46.463Z,9.77
2022-10-26T05:51:49.262Z,9.40
2022-10-26T05:54:51.889Z,10.27
2022-10-26T05:57:55.237Z,9.68
2022-10-26T06:01:18.228Z,9.70
2022-10-26T06:04:33.255Z,9.82
2022-10-26T06:07:36.053Z,9.20
2022-10-26T06:10:39.454Z,9.85
2022-10-26T06:13:42.169Z,10.00
2022-10-26T06:17:01.872Z,10.02
2022-10-26T06:20:39.631Z,9.88
2022-10-26T06:24:11.628Z,9.57
2022-10-26T06:27:38.898Z,11.82
2022-10-26T06:30:42.037Z,12.30
2022-10-26T06:33:44.809Z,12.73
2022-10-26T06:36:49.849Z,12.75
2022-10-26T06:39:54.797Z,12.57
2022-10-26T06:43:00.651Z,11.52
2022-10-26T06:59:48.457Z,11.68
2022-10-26T07:02:51.819Z,10.05
2022-10-26T07:05:54.934Z,10.52
2022-10-26T07:08:57.690Z,10.35
2022-10-26T07:12:00.372Z,9.73
2022-10-26T07:15:03.993Z,10.75
2022-10-26T07:18:07.983Z,10.13
2022-10-26T07:21:10.713Z,10.98
2022-10-26T07:24:13.109Z,9.73
2022-10-26T07:27:16.381Z,9.45
2022-10-26T07:30:18.975Z,10.10
2022-10-26T07:33:21.893Z,9.88
2022-10-26T07:36:24.474Z,10.32
2022-10-26T07:39:27.700Z,10.63
2022-10-26T07:42:30.180Z,10.10
2022-10-26T07:45:33.355Z,10.85
2022-10-26T07:48:35.801Z,10.73
2022-10-26T07:51:38.616Z,11.10
2022-10-26T07:54:41.303Z,11.45
2022-10-26T07:57:44.127Z,10.93
2022-10-26T08:00:46.725Z,10.23
2022-10-26T08:03:53.483Z,11.23
2022-10-26T08:06:55.897Z,9.68
2022-10-26T08:09:58.669Z,10.98
2022-10-26T08:13:01.093Z,10.82
2022-10-26T08:16:05.545Z,9.90
2022-10-26T08:19:08.117Z,9.48
2022-10-26T08:22:10.913Z,8.80
2022-10-26T08:25:16.353Z,8.98
2022-10-26T08:28:21.751Z,8.88
2022-10-26T08:31:24.388Z,8.40
2022-10-26T08:34:27.188Z,8.57
2022-10-26T08:37:29.893Z,9.30
2022-10-26T08:40:36.801Z,9.63
2022-10-26T08:43:54.719Z,9.80
2022-10-26T08:47:14.243Z,9.52
2022-10-26T08:53:41.618Z,9.52
2022-10-26T08:56:52.927Z,9.48
2022-10-26T09:00:06.556Z,8.68
2022-10-26T09:03:14.427Z,8.82
2022-10-26T09:06:44.893Z,8.75
2022-10-26T09:09:59.827Z,8.68
2022-10-26T09:13:14.752Z,8.20
2022-10-26T09:16:23.224Z,9.55
2022-10-26T09:19:34.939Z,9.15
2022-10-26T09:22:52.527Z,9.15
2022-10-26T09:26:00.554Z,9.73
2022-10-26T09:29:06.812Z,8.77
2022-10-26T09:32:21.388Z,8.68
2022-10-26T09:35:33.971Z,8.85
2022-10-26T09:38:55.907Z,9.25
2022-10-26T09:42:22.290Z,9.48
2022-10-26T09:45:35.898Z,7.70
2022-10-26T09:48:45.364Z,8.07
2022-10-26T09:51:48.890Z,8.25
2022-10-26T09:54:51.359Z,8.60
2022-10-26T09:57:57.312Z,8.35
2022-10-26T10:01:00.028Z,7.55
2022-10-26T10:04:20.153Z,7.50
2022-10-26T10:07:22.586Z,6.72
2022-10-26T10:10:25.208Z,6.95
2022-10-26T10:13:33.397Z,6.40
2022-10-26T10:16:36.438Z,5.50
2022-10-26T10:19:39.394Z,5.43
2022-10-26T10:22:54.480Z,5.25
2022-10-26T10:26:13.304Z,5.32
2022-10-26T10:29:16.413Z,5.25
2022-10-26T10:32:21.318Z,5.75
2022-10-26T10:35:29.545Z,6.25
2022-10-26T10:38:38.756Z,6.15
2022-10-26T10:41:45.184Z,7.07
2022-10-26T10:44:53.220Z,6.93
2022-10-26T10:48:04.023Z,8.00
2022-10-26T10:51:12.544Z,8.18
2022-10-26T10:54:25.456Z,7.60
2022-10-26T10:57:39.521Z,8.48
2022-10-26T11:00:48.299Z,8.20
2022-10-26T11:04:20.705Z,8.63
2022-10-26T11:07:25.958Z,8.63
2022-10-26T11:10:34.327Z,8.68
2022-10-26T11:13:41.620Z,9.45
2022-10-26T11:16:49.050Z,9.02
2022-10-26T11:19:59.647Z,8.85
2022-10-26T11:23:26.121Z,8.32
2022-10-26T11:26:35.547Z,8.68
2022-10-26T11:29:55.143Z,9.13
2022-10-26T11:33:20.935Z,8.80
2022-10-26T11:36:25.181Z,9.45
2022-10-26T11:39:46.434Z,9.18
2022-10-26T11:42:57.890Z,9.43
2022-10-26T11:46:22.121Z,9.40
2022-10-26T11:49:42.206Z,8.68
2022-10-26T11:52:52.819Z,9.13
2022-10-26T11:55:57.560Z,9.68
2022-10-26T12:02:25.175Z,9.18
2022-10-26T12:05:40.295Z,10.02
2022-10-26T12:08:48.480Z,10.32
2022-10-26T12:12:06.415Z,9.82
2022-10-26T12:15:18.206Z,9.98
2022-10-26T12:18:36.865Z,11.05
2022-10-26T12:21:44.266Z,10.40
2022-10-26T12:25:24.723Z,9.85
2022-10-26T12:28:36.304Z,9.77
2022-10-26T12:31:38.972Z,9.30
2022-10-26T12:34:41.291Z,9.35
2022-10-26T12:37:43.997Z,9.75
2022-10-26T12:40:46.609Z,9.77
2022-10-26T12:43:49.915Z,9.45
2022-10-26T12:46:52.409Z,9.15
2022-10-26T12:50:18.552Z,9.73
2022-10-26T12:53:22.304Z,10.73
2022-10-26T12:56:35.736Z,8.60
2022-10-26T12:59:58.133Z,9.85
2022-10-26T13:03:21.514Z,9.77
2022-10-26T13:06:49.771Z,10.13
2022-10-26T13:09:58.102Z,10.18
2022-10-26T13:13:02.881Z,9.98
2022-10-26T13:16:11.140Z,9.27
2022-10-26T13:19:42.413Z,9.98
2022-10-26T13:22:47.930Z,9.52
2022-10-26T13:26:12.816Z,9.93
2022-10-26T13:29:16.080Z,9.68
2022-10-26T13:32:18.987Z,9.07
2022-10-26T13:35:24.558Z,10.80
2022-10-26T13:38:32.488Z,10.35
2022-10-26T13:41:38.975Z,10.27
2022-10-26T13:45:06.685Z,10.13
2022-10-26T13:48:20.451Z,11.02
2022-10-26T13:51:26.230Z,10.45
2022-10-26T13:54:46.299Z,10.88
2022-10-26T13:58:19.656Z,10.38
2022-10-26T14:01:25.896Z,10.93
2022-10-26T14:04:29.132Z,10.68
2022-10-26T14:07:37.616Z,10.18
2022-10-26T14:10:43.245Z,9.65
2022-10-26T14:13:48.808Z,9.55
2022-10-26T14:16:53.553Z,9.73
2022-10-26T14:19:56.927Z,9.82
2022-10-26T14:22:59.588Z,9.80
2022-10-26T14:26:03.112Z,10.10
2022-10-26T14:29:17.379Z,9.52
2022-10-26T14:32:33.509Z,9.85
2022-10-26T14:35:37.618Z,10.68
2022-10-26T14:38:45.600Z,9.45
2022-10-26T14:41:50.559Z,9.18
2022-10-26T14:44:53.234Z,10.55
2022-10-26T14:47:56.828Z,10.10
2022-10-26T14:50:59.701Z,10.73
2022-10-26T14:54:03.846Z,10.50
2022-10-26T14:57:36.719Z,11.25
2022-10-26T15:00:40.430Z,10.30
2022-10-26T15:03:51.149Z,11.05
2022-10-26T15:07:02.644Z,10.45
2022-10-26T15:10:06.156Z,10.35
2022-10-26T15:13:33.667Z,11.07
2022-10-26T15:16:36.272Z,10.40
2022-10-26T15:19:40.053Z,10.95
2022-10-26T15:22:54.069Z,10.05
2022-10-26T15:26:01.556Z,10.88
2022-10-26T15:29:04.058Z,10.05
2022-10-26T15:32:31.338Z,10.13
2022-10-26T15:35:33.893Z,10.35
2022-10-26T15:38:36.894Z,9.70
2022-10-26T15:41:46.921Z,10.55
2022-10-26T15:44:53.124Z,13.43
2022-10-26T15:47:58.949Z,13.10
2022-10-26T15:51:01.853Z,11.45
2022-10-26T15:54:05.215Z,11.12
